Time;durP1;ratioP1;P1;durP2;ratioP2;P2;SDS_P1;SDS_P2;PMS_P1;PMS_P2;Temp;Humidity;BMP_temperature;BMP_pressure;BME280_temperature;BME280_humidity;BME280_pressure;Samples;Min_cycle;Max_cycle;Signal;HPM_P1;HPM_P2
2021/09/10 00:00:56;;;;;;;9.55;6.20;;;;;;;12.99;100.00;100350.97;6263797;28;20044;-81
2021/09/10 00:04:01;;;;;;;11.52;6.22;;;;;;;13.00;100.00;100353.47;6296875;28;20457;-84
2021/09/10 00:07:02;;;;;;;9.82;6.35;;;;;;;12.87;100.00;100355.25;6296488;28;20048;-84
2021/09/10 00:10:04;;;;;;;10.00;6.15;;;;;;;12.91;100.00;100354.09;6296475;28;20045;-84
2021/09/10 00:13:05;;;;;;;8.55;5.65;;;;;;;12.86;100.00;100353.56;6263306;28;20423;-81
2021/09/10 00:16:06;;;;;;;13.20;6.20;;;;;;;12.81;100.00;100351.25;6280011;28;20136;-81
2021/09/10 00:19:07;;;;;;;8.52;5.47;;;;;;;12.84;100.00;100363.28;6279880;28;20123;-84
2021/09/10 00:22:08;;;;;;;12.18;5.72;;;;;;;12.78;100.00;100354.06;6279652;28;20040;-84
2021/09/10 00:25:09;;;;;;;8.40;5.93;;;;;;;12.70;100.00;100354.56;6262957;28;20098;-81
2021/09/10 00:28:10;;;;;;;9.18;5.95;;;;;;;12.60;100.00;100363.09;6262545;28;20118;-82
2021/09/10 00:31:11;;;;;;;8.90;6.20;;;;;;;12.66;100.00;100365.31;6279966;28;20484;-84
2021/09/10 00:34:12;;;;;;;13.05;6.40;;;;;;;12.63;100.00;100362.91;6279277;28;20087;-84
2021/09/10 00:37:12;;;;;;;9.15;6.22;;;;;;;12.65;100.00;100368.91;6262715;28;20131;-84
2021/09/10 00:40:13;;;;;;;9.25;6.40;;;;;;;12.52;100.00;100365.38;6279192;28;20173;-84
2021/09/10 00:43:14;;;;;;;11.33;6.03;;;;;;;12.50;100.00;100362.88;6279185;28;20376;-84
2021/09/10 00:46:15;;;;;;;10.20;6.18;;;;;;;12.52;100.00;100357.50;6262294;28;20056;-84
2021/09/10 00:49:16;;;;;;;10.43;5.32;;;;;;;12.53;100.00;100360.03;6278880;28;20135;-84
2021/09/10 00:52:18;;;;;;;12.80;6.22;;;;;;;12.44;100.00;100356.25;6278999;28;20040;-82
2021/09/10 00:55:25;;;;;;;11.15;6.43;;;;;;;12.54;100.00;100368.72;6296764;28;20487;-82
2021/09/10 00:58:26;;;;;;;9.07;6.00;;;;;;;12.52;100.00;100368.00;6296281;28;20040;-82
2021/09/10 01:01:27;;;;;;;8.80;5.80;;;;;;;12.49;100.00;100366.41;6295459;28;20044;-82
2021/09/10 01:04:28;;;;;;;10.40;6.03;;;;;;;12.52;100.00;100362.75;6278907;28;20046;-81
2021/09/10 01:07:29;;;;;;;11.27;6.70;;;;;;;12.47;100.00;100358.66;6296473;28;20050;-84
2021/09/10 01:10:30;;;;;;;10.70;6.20;;;;;;;12.33;100.00;100353.47;6278631;28;20044;-81
2021/09/10 01:13:31;;;;;;;13.88;6.10;;;;;;;12.26;100.00;100352.19;6278956;28;20411;-81
2021/09/10 01:16:32;;;;;;;8.90;6.03;;;;;;;12.30;100.00;100353.66;6295209;28;20052;-81
2021/09/10 01:19:34;;;;;;;12.35;6.22;;;;;;;12.26;100.00;100354.81;6278878;28;20521;-81
2021/09/10 01:22:36;;;;;;;;;;;;;;;12.16;100.00;100349.28;6279188;28;20411;-81
2021/09/10 01:25:37;;;;;;;9.13;6.40;;;;;;;12.19;100.00;100348.25;6295314;28;19920;-81
2021/09/10 01:28:38;;;;;;;10.25;6.07;;;;;;;12.19;100.00;100350.88;6295193;28;20045;-81
2021/09/10 01:31:39;;;;;;;12.83;6.67;;;;;;;12.12;100.00;100345.19;6278107;28;20037;-83
2021/09/10 01:34:39;;;;;;;9.85;6.20;;;;;;;12.00;100.00;100349.41;6277986;28;20502;-83
2021/09/10 01:37:40;;;;;;;9.05;6.20;;;;;;;11.95;100.00;100348.03;6277950;28;20491;-84
2021/09/10 01:40:42;;;;;;;9.70;6.35;;;;;;;11.98;100.00;100348.66;6294831;28;20040;-81
2021/09/10 01:43:42;;;;;;;11.65;6.10;;;;;;;12.03;100.00;100343.16;6294739;28;20040;-81
2021/09/10 01:46:43;;;;;;;8.90;6.43;;;;;;;11.99;100.00;100352.16;6261443;28;20059;-81
2021/09/10 01:49:44;;;;;;;8.73;6.25;;;;;;;12.04;100.00;100343.06;6277870;28;20044;-84
2021/09/10 01:52:45;;;;;;;9.15;6.00;;;;;;;12.04;100.00;100337.00;6277812;28;20037;-81
2021/09/10 01:55:46;;;;;;;9.35;6.13;;;;;;;11.96;100.00;100332.22;6277894;28;20068;-81
2021/09/10 01:58:46;;;;;;;11.48;6.15;;;;;;;11.97;100.00;100338.31;6277679;28;20076;-84
2021/09/10 02:01:47;;;;;;;12.65;6.60;;;;;;;11.85;100.00;100335.47;6294060;28;20037;-84
2021/09/10 02:04:48;;;;;;;14.15;6.82;;;;;;;11.78;100.00;100335.97;6293769;28;20127;-84
2021/09/10 02:07:49;;;;;;;11.93;6.47;;;;;;;11.75;100.00;100344.00;6276632;28;20093;-81
2021/09/10 02:10:49;;;;;;;10.27;6.32;;;;;;;11.68;100.00;100346.16;6277558;28;20344;-81
2021/09/10 02:13:50;;;;;;;9.30;6.40;;;;;;;11.70;100.00;100345.13;6295272;28;20483;-84
2021/09/10 02:16:51;;;;;;;8.63;6.25;;;;;;;11.58;100.00;100338.03;6277075;28;20051;-84
2021/09/10 02:19:51;;;;;;;13.35;6.65;;;;;;;11.70;100.00;100357.34;6277163;28;20042;-84
2021/09/10 02:22:52;;;;;;;18.05;6.97;;;;;;;11.62;100.00;100339.50;6277299;28;20147;-81
2021/09/10 02:25:53;;;;;;;9.90;6.18;;;;;;;11.60;100.00;100348.38;6293796;28;20049;-84
2021/09/10 02:28:54;;;;;;;7.97;5.63;;;;;;;11.56;100.00;100346.91;6277033;28;20088;-84
2021/09/10 02:31:55;;;;;;;9.07;6.32;;;;;;;11.50;100.00;100343.69;6276910;28;20120;-84
2021/09/10 02:34:56;;;;;;;9.32;6.15;;;;;;;11.55;100.00;100345.19;6261019;28;20040;-81
2021/09/10 02:37:57;;;;;;;10.75;6.70;;;;;;;11.48;100.00;100339.50;6277276;28;20041;-81
2021/09/10 02:40:57;;;;;;;9.52;6.45;;;;;;;11.44;100.00;100351.06;6260499;28;20086;-81
2021/09/10 02:43:58;;;;;;;10.32;6.05;;;;;;;11.43;100.00;100337.19;6293752;28;20047;-84
2021/09/10 02:46:59;;;;;;;9.05;5.60;;;;;;;11.43;100.00;100333.72;6276726;28;20056;-84
2021/09/10 02:50:00;;;;;;;8.40;6.30;;;;;;;11.41;100.00;100341.66;6293565;28;20437;-81
2021/09/10 02:53:01;;;;;;;17.10;7.25;;;;;;;11.46;100.00;100341.38;6260369;28;20041;-81
2021/09/10 02:56:02;;;;;;;9.63;5.77;;;;;;;11.44;100.00;100338.84;6260601;28;20049;-81
2021/09/10 02:59:03;;;;;;;11.93;6.30;;;;;;;11.24;100.00;100342.66;6293471;28;20392;-81
2021/09/10 03:02:04;;;;;;;10.32;6.45;;;;;;;11.27;100.00;100341.63;6293595;28;20124;-81
2021/09/10 03:05:06;;;;;;;8.35;6.30;;;;;;;11.30;100.00;100346.66;6276728;28;20041;-81
2021/09/10 03:08:07;;;;;;;9.27;6.05;;;;;;;11.32;100.00;100352.63;6277015;28;20158;-81
2021/09/10 03:11:09;;;;;;;12.40;6.45;;;;;;;11.22;100.00;100347.13;6293392;28;20037;-81
2021/09/10 03:14:10;;;;;;;9.65;6.10;;;;;;;11.18;100.00;100352.59;6293456;28;20063;-81
2021/09/10 03:17:10;;;;;;;11.00;6.40;;;;;;;11.15;100.00;100342.38;6276830;28;20526;-82
2021/09/10 03:20:12;;;;;;;13.68;6.93;;;;;;;11.14;100.00;100349.38;6278514;28;20127;-81
2021/09/10 03:23:13;;;;;;;11.45;6.85;;;;;;;11.17;100.00;100345.72;6281526;28;20032;-81
2021/09/10 03:26:14;;;;;;;11.27;6.78;;;;;;;11.14;100.00;100351.09;6281428;28;20044;-81
2021/09/10 03:29:15;;;;;;;10.45;6.32;;;;;;;11.06;100.00;100341.13;6264703;28;20041;-81
2021/09/10 03:32:15;;;;;;;9.10;6.28;;;;;;;11.01;100.00;100344.00;6297848;28;20033;-81
2021/09/10 03:35:16;;;;;;;15.05;5.82;;;;;;;10.99;100.00;100343.25;6297786;28;20052;-81
2021/09/10 03:38:17;;;;;;;14.00;6.40;;;;;;;10.94;100.00;100341.84;6281201;28;20048;-81
2021/09/10 03:41:18;;;;;;;10.70;6.05;;;;;;;11.00;100.00;100344.94;6280999;28;20449;-81
2021/09/10 03:44:19;;;;;;;13.40;6.43;;;;;;;10.87;100.00;100347.41;6316350;28;20070;-81
2021/09/10 03:47:19;;;;;;;10.40;6.10;;;;;;;10.81;100.00;100346.91;6272872;28;20047;-81
2021/09/10 03:50:20;;;;;;;10.07;6.10;;;;;;;10.82;100.00;100354.66;6305830;28;20051;-81
2021/09/10 03:53:21;;;;;;;11.68;6.97;;;;;;;10.77;100.00;100348.88;6288926;28;20036;-81
2021/09/10 03:56:23;;;;;;;12.30;6.10;;;;;;;10.65;100.00;100350.41;6288765;28;20125;-81
2021/09/10 03:59:24;;;;;;;11.25;6.63;;;;;;;10.69;100.00;100348.47;6288813;28;20071;-84
2021/09/10 04:02:24;;;;;;;11.63;6.28;;;;;;;10.69;100.00;100346.69;6288329;28;20406;-84
2021/09/10 04:05:25;;;;;;;13.68;6.40;;;;;;;10.68;100.00;100352.81;6304716;28;20040;-84
2021/09/10 04:08:26;;;;;;;11.68;6.25;;;;;;;10.58;100.00;100348.22;6288374;28;20032;-81
2021/09/10 04:11:27;;;;;;;12.15;6.20;;;;;;;10.58;100.00;100356.88;6288232;28;20443;-84
2021/09/10 04:14:27;;;;;;;12.80;7.43;;;;;;;10.51;100.00;100358.16;6305248;28;20420;-84
2021/09/10 04:17:28;;;;;;;10.45;6.50;;;;;;;10.54;100.00;100364.97;6271487;28;20119;-84
2021/09/10 04:20:30;;;;;;;12.77;6.60;;;;;;;10.49;100.00;100371.28;6288000;28;20036;-84
2021/09/10 04:23:31;;;;;;;15.45;6.75;;;;;;;10.49;100.00;100366.06;6304544;28;20040;-84
2021/09/10 04:26:32;;;;;;;11.02;6.82;;;;;;;10.61;100.00;100372.38;6287620;28;20077;-84
2021/09/10 04:29:32;;;;;;;11.65;6.00;;;;;;;10.54;100.00;100372.81;6304324;28;20060;-84
2021/09/10 04:32:34;;;;;;;11.68;6.70;;;;;;;10.49;100.00;100367.84;6303878;28;20036;-81
2021/09/10 04:35:34;;;;;;;13.90;6.47;;;;;;;10.48;100.00;100372.22;6304848;28;20421;-81
2021/09/10 04:38:35;;;;;;;19.25;7.25;;;;;;;10.53;100.00;100368.53;6287730;28;20036;-81
2021/09/10 04:41:36;;;;;;;17.63;6.68;;;;;;;10.52;100.00;100379.88;6271111;28;20040;-81
2021/09/10 04:44:37;;;;;;;16.90;6.68;;;;;;;10.52;100.00;100382.47;6303792;28;20048;-84
2021/09/10 04:47:38;;;;;;;14.70;6.82;;;;;;;10.54;100.00;100380.63;6287274;28;20063;-85
2021/09/10 04:50:39;;;;;;;11.68;6.78;;;;;;;10.59;100.00;100389.91;6303983;28;20410;-84
2021/09/10 04:53:40;;;;;;;15.57;7.00;;;;;;;10.62;100.00;100388.88;6254013;28;20052;-84
2021/09/10 04:56:41;;;;;;;12.52;7.03;;;;;;;10.68;100.00;100391.97;6303810;28;20482;-84
2021/09/10 04:59:42;;;;;;;13.45;7.32;;;;;;;10.75;100.00;100387.28;6270546;28;20065;-84
2021/09/10 05:02:43;;;;;;;11.80;7.30;;;;;;;10.91;100.00;100389.84;6270695;28;20074;-85
2021/09/10 05:05:44;;;;;;;16.55;7.78;;;;;;;11.01;100.00;100391.00;6303322;28;20051;-84
2021/09/10 05:08:45;;;;;;;14.30;7.32;;;;;;;11.09;100.00;100390.56;6286774;28;20123;-84
2021/09/10 05:11:46;;;;;;;12.27;8.20;;;;;;;11.21;100.00;100394.25;6286654;28;20042;-85
2021/09/10 05:14:51;;;;;;;15.43;7.93;;;;;;;11.29;100.00;100399.84;6286698;28;20084;-84
2021/09/10 05:17:52;;;;;;;15.48;7.45;;;;;;;11.42;100.00;100399.97;6304015;28;20104;-82
2021/09/10 05:20:53;;;;;;;14.23;7.78;;;;;;;11.51;100.00;100391.59;6303139;28;20044;-85
2021/09/10 05:23:54;;;;;;;18.67;8.07;;;;;;;11.62;100.00;100393.56;6269983;28;20261;-82
2021/09/10 05:26:54;;;;;;;14.93;7.68;;;;;;;11.74;100.00;100397.22;6269781;28;20093;-81
2021/09/10 05:29:55;;;;;;;13.57;7.88;;;;;;;11.80;100.00;100395.06;6269955;28;20040;-82
2021/09/10 05:32:56;;;;;;;12.88;7.15;;;;;;;11.91;100.00;100394.44;6303007;28;20490;-82
2021/09/10 05:35:57;;;;;;;17.73;8.07;;;;;;;12.01;100.00;100390.34;6269957;28;20490;-81
2021/09/10 05:38:58;;;;;;;18.80;8.45;;;;;;;12.09;100.00;100401.16;6286237;28;20123;-82
2021/09/10 05:41:59;;;;;;;11.90;7.72;;;;;;;12.18;100.00;100404.97;6269527;28;20048;-84
2021/09/10 05:44:59;;;;;;;15.50;7.70;;;;;;;12.28;100.00;100397.41;6302089;28;20063;-82
2021/09/10 05:48:00;;;;;;;15.23;7.63;;;;;;;12.37;100.00;100393.38;6286165;28;20036;-83
2021/09/10 05:51:01;;;;;;;18.08;8.20;;;;;;;12.48;100.00;100396.16;6302855;28;20112;-83
2021/09/10 05:54:03;;;;;;;23.85;8.30;;;;;;;12.59;100.00;100398.09;6302718;28;20064;-82
2021/09/10 05:57:04;;;;;;;17.25;7.70;;;;;;;12.75;100.00;100398.78;6286450;28;20044;-82
2021/09/10 06:00:06;;;;;;;17.15;7.90;;;;;;;12.80;100.00;100404.53;6303019;28;20145;-82
2021/09/10 06:03:07;;;;;;;18.25;8.75;;;;;;;12.91;100.00;100409.09;6286335;28;20072;-82
2021/09/10 06:06:09;;;;;;;20.23;8.43;;;;;;;13.02;100.00;100411.03;6286177;28;20058;-83
2021/09/10 06:09:09;;;;;;;20.65;8.35;;;;;;;13.15;100.00;100405.81;6302966;28;20479;-82
2021/09/10 06:12:10;;;;;;;22.17;7.95;;;;;;;13.23;100.00;100414.81;6269586;28;20047;-81
2021/09/10 06:15:12;;;;;;;20.98;8.00;;;;;;;13.30;100.00;100410.03;6302808;28;20047;-82
2021/09/10 06:18:13;;;;;;;14.23;8.13;;;;;;;13.43;100.00;100410.91;6286672;28;20044;-79
2021/09/10 06:21:14;;;;;;;26.35;7.93;;;;;;;13.55;100.00;100414.50;6270604;28;20671;-81
2021/09/10 06:24:15;;;;;;;18.48;8.77;;;;;;;13.71;100.00;100416.91;6287305;28;20093;-81
2021/09/10 06:27:15;;;;;;;15.15;8.43;;;;;;;13.84;100.00;100409.06;6270710;28;20379;-81
2021/09/10 06:30:16;;;;;;;19.45;8.75;;;;;;;13.96;100.00;100402.97;6287218;28;20044;-81
2021/09/10 06:33:17;;;;;;;15.30;8.25;;;;;;;14.16;100.00;100409.41;6287304;28;20716;-82
2021/09/10 06:36:18;;;;;;;19.02;8.40;;;;;;;14.26;100.00;100409.59;6304066;28;20043;-81
2021/09/10 06:39:19;;;;;;;19.25;9.30;;;;;;;14.47;96.85;100412.50;6287027;28;20406;-81
2021/09/10 06:42:20;;;;;;;17.05;9.20;;;;;;;14.69;97.10;100403.94;6285677;28;20039;-80
2021/09/10 06:45:22;;;;;;;18.80;9.43;;;;;;;14.90;96.15;100414.66;6285095;28;20056;-81
2021/09/10 06:48:23;;;;;;;20.35;8.77;;;;;;;15.10;93.93;100410.56;6285229;28;20061;-81
2021/09/10 06:51:24;;;;;;;19.85;8.93;;;;;;;15.24;94.15;100409.56;6268320;28;20209;-84
2021/09/10 06:54:25;;;;;;;18.13;9.15;;;;;;;15.45;93.93;100414.97;6265890;28;20048;-81
2021/09/10 06:57:28;;;;;;;23.00;9.25;;;;;;;15.60;96.68;100421.69;6289975;28;20048;-81
2021/09/10 07:00:28;;;;;;;21.05;9.50;;;;;;;15.73;89.20;100431.31;6289792;28;20438;-81
2021/09/10 07:03:29;;;;;;;18.58;9.15;;;;;;;15.89;89.35;100421.28;6290143;28;20042;-82
2021/09/10 07:06:30;;;;;;;14.88;8.70;;;;;;;16.14;88.20;100435.16;6289952;28;20407;-82
2021/09/10 07:09:31;;;;;;;17.77;8.65;;;;;;;16.43;90.90;100423.19;6273331;28;20036;-83
2021/09/10 07:12:32;;;;;;;25.40;9.88;;;;;;;16.65;87.78;100424.91;6290137;28;20040;-82
2021/09/10 07:15:33;;;;;;;22.88;9.38;;;;;;;16.80;87.92;100429.91;6273152;28;20119;-85
2021/09/10 07:18:33;;;;;;;18.17;8.98;;;;;;;16.96;85.92;100432.16;6272851;28;20109;-83
2021/09/10 07:21:34;;;;;;;17.75;9.18;;;;;;;17.15;86.22;100436.75;6272954;28;20043;-82
2021/09/10 07:24:35;;;;;;;16.25;8.77;;;;;;;17.31;86.02;100445.91;6306204;28;20036;-83
2021/09/10 07:27:36;;;;;;;21.17;9.25;;;;;;;17.44;84.44;100434.31;6305756;28;20051;-86
2021/09/10 07:30:36;;;;;;;19.50;9.05;;;;;;;17.62;82.75;100439.88;6305761;28;20479;-83
2021/09/10 07:33:42;;;;;;;23.95;8.27;;;;;;;17.75;82.67;100437.00;6305698;28;20040;-83
2021/09/10 07:36:48;;;;;;;23.55;8.13;;;;;;;17.95;79.88;100438.81;6289632;28;20116;-83
2021/09/10 07:39:49;;;;;;;26.65;8.05;;;;;;;18.18;78.67;100430.72;6288851;28;20056;-86
2021/09/10 07:42:49;;;;;;;14.73;7.78;;;;;;;18.33;72.36;100432.03;6272255;28;20040;-85
2021/09/10 07:45:50;;;;;;;14.85;7.38;;;;;;;18.52;75.76;100437.34;6305284;28;20052;-86
2021/09/10 07:48:51;;;;;;;12.18;7.60;;;;;;;18.69;72.68;100435.84;6272337;28;20455;-84
2021/09/10 07:51:51;;;;;;;15.52;7.50;;;;;;;18.93;69.03;100438.16;6288739;28;20044;-84
2021/09/10 07:54:53;;;;;;;16.10;7.30;;;;;;;19.13;70.17;100438.16;6288746;28;20040;-84
2021/09/10 07:57:53;;;;;;;14.03;7.40;;;;;;;19.30;66.07;100445.38;6288531;28;20044;-86
2021/09/10 08:00:54;;;;;;;13.65;7.38;;;;;;;19.49;68.61;100435.75;6288659;28;20299;-83
2021/09/10 08:03:55;;;;;;;15.57;7.35;;;;;;;19.69;66.57;100439.19;6288503;28;20064;-83
2021/09/10 08:06:55;;;;;;;14.00;7.80;;;;;;;19.80;64.94;100435.56;6270428;28;20036;-84
2021/09/10 08:09:56;;;;;;;14.60;7.47;;;;;;;20.01;64.02;100440.66;6271757;28;20040;-86
2021/09/10 08:12:57;;;;;;;14.50;7.50;;;;;;;20.22;66.52;100441.28;6288271;28;20044;-85
2021/09/10 08:15:58;;;;;;;15.60;7.83;;;;;;;20.41;67.09;100439.50;6287872;28;20516;-84
2021/09/10 08:18:58;;;;;;;12.53;7.60;;;;;;;20.59;65.84;100432.47;6304918;28;20036;-84
2021/09/10 08:21:59;;;;;;;16.40;7.20;;;;;;;20.75;62.83;100431.78;6287977;28;20039;-85
2021/09/10 08:25:02;;;;;;;13.07;7.40;;;;;;;20.93;60.33;100437.91;6322662;28;20035;-84
2021/09/10 08:28:03;;;;;;;19.52;7.40;;;;;;;21.14;59.32;100429.63;6304718;28;20517;-86
2021/09/10 08:31:04;;;;;;;13.63;7.40;;;;;;;21.25;56.37;100433.03;6271265;28;20478;-85
2021/09/10 08:34:06;;;;;;;15.07;8.00;;;;;;;21.42;58.55;100426.06;6271232;28;20071;-85
2021/09/10 08:37:07;;;;;;;18.10;6.97;;;;;;;21.57;56.98;100423.69;6287900;28;20051;-85
2021/09/10 08:40:08;;;;;;;14.40;6.77;;;;;;;21.85;58.92;100419.88;6304124;28;20118;-87
2021/09/10 08:43:09;;;;;;;15.15;6.93;;;;;;;22.13;55.53;100417.00;6270855;28;20173;-84
2021/09/10 08:46:11;;;;;;;16.42;6.93;;;;;;;22.31;55.07;100409.81;6303758;28;20070;-84
2021/09/10 08:49:15;;;;;;;;;;;;;;;22.47;57.91;100419.66;6287883;28;20044;-84
2021/09/10 08:52:16;;;;;;;15.90;6.63;;;;;;;22.70;57.32;100408.41;6320755;28;19973;-84
2021/09/10 08:55:17;;;;;;;14.00;7.50;;;;;;;22.98;51.72;100408.94;6287385;28;20094;-84
2021/09/10 08:58:18;;;;;;;16.58;6.40;;;;;;;23.07;52.55;100402.66;6287319;28;20070;-87
2021/09/10 09:01:19;;;;;;;13.05;7.53;;;;;;;23.24;53.71;100399.97;6287167;28;20043;-86
2021/09/10 09:04:28;;;;;;;13.70;7.17;;;;;;;23.43;49.23;100398.78;6270557;28;20039;-84
2021/09/10 09:07:29;;;;;;;16.20;7.18;;;;;;;23.48;47.65;100397.28;6304443;28;20403;-85
2021/09/10 09:10:56;;;;;;;9.73;7.00;;;;;;;23.54;45.73;100399.28;6303443;28;20043;-84
2021/09/10 09:14:04;;;;;;;15.43;7.28;;;;;;;23.61;45.67;100399.41;6304030;28;20040;-85
2021/09/10 09:17:21;;;;;;;11.65;6.40;;;;;;;23.54;44.28;100404.59;6271679;28;20071;-84
2021/09/10 09:20:25;;;;;;;9.88;6.40;;;;;;;23.92;49.32;100404.03;6303178;28;20119;-85
2021/09/10 09:23:29;;;;;;;11.50;5.60;;;;;;;24.30;48.59;100398.88;6286577;28;20052;-86
2021/09/10 09:26:30;;;;;;;14.80;5.85;;;;;;;24.64;43.07;100387.03;6254034;28;20044;-83
2021/09/10 09:29:31;;;;;;;7.57;5.17;;;;;;;24.86;43.91;100399.53;6270239;28;20130;-84
2021/09/10 09:32:46;;;;;;;10.73;5.63;;;;;;;24.73;45.02;100388.66;6303263;28;20044;-84
2021/09/10 09:35:47;;;;;;;8.82;4.00;;;;;;;24.76;41.30;100393.63;6303021;28;20120;-84
2021/09/10 09:38:48;;;;;;;8.45;3.83;;;;;;;24.91;43.55;100386.50;6269906;28;20032;-84
2021/09/10 09:41:48;;;;;;;5.28;4.22;;;;;;;25.16;41.69;100394.28;6286375;28;20449;-84
2021/09/10 09:45:11;;;;;;;8.90;3.97;;;;;;;25.10;41.32;100387.84;6287116;28;20127;-86
2021/09/10 09:48:12;;;;;;;7.38;3.90;;;;;;;25.18;38.97;100376.22;6286431;28;20062;-85
2021/09/10 09:51:15;;;;;;;7.43;3.80;;;;;;;25.40;41.21;100379.91;6286139;28;20407;-84
2021/09/10 09:54:16;;;;;;;7.68;3.90;;;;;;;25.37;37.70;100371.41;6286456;28;20093;-85
2021/09/10 09:57:18;;;;;;;;;;;;;;;25.29;38.41;100380.38;6286457;28;20509;-88
2021/09/10 10:00:18;;;;;;;7.15;4.20;;;;;;;25.58;39.95;100376.88;6302882;28;19920;-88
2021/09/10 10:03:19;;;;;;;6.63;3.50;;;;;;;25.68;40.94;100373.94;6285910;28;20149;-85
2021/09/10 10:06:23;;;;;;;6.18;3.22;;;;;;;25.93;38.63;100371.84;6286074;28;20051;-86
2021/09/10 10:09:25;;;;;;;6.78;3.53;;;;;;;25.89;39.83;100363.34;6286467;28;20042;-88
2021/09/10 10:12:27;;;;;;;5.43;3.45;;;;;;;26.01;36.13;100366.38;6286259;28;20047;-85
2021/09/10 10:15:29;;;;;;;6.82;3.67;;;;;;;26.09;36.18;100362.78;6303606;28;20044;-83
2021/09/10 10:18:44;;;;;;;9.50;3.95;;;;;;;26.05;40.21;100356.97;6287318;28;20402;-85
2021/09/10 10:22:05;;;;;;;5.55;3.20;;;;;;;26.22;39.66;100354.09;6303758;28;20044;-84
2021/09/10 10:25:11;;;;;;;8.47;3.60;;;;;;;26.45;40.98;100349.38;6303567;28;20471;-84
2021/09/10 10:28:42;;;;;;;7.65;3.47;;;;;;;26.46;38.21;100350.19;6303614;28;20044;-85
2021/09/10 10:32:01;;;;;;;6.00;3.40;;;;;;;26.24;37.14;100346.69;6308420;28;20052;-85
2021/09/10 10:35:19;;;;;;;4.43;3.28;;;;;;;26.23;38.00;100342.34;6308811;28;20089;-85
2021/09/10 10:38:20;;;;;;;6.93;3.50;;;;;;;25.88;38.01;100336.78;6327220;28;20040;-87
2021/09/10 10:41:21;;;;;;;6.28;3.50;;;;;;;25.81;37.35;100333.19;6291840;28;20124;-87
2021/09/10 10:44:31;;;;;;;7.85;3.67;;;;;;;26.19;38.67;100336.56;6292165;28;20063;-86
2021/09/10 10:47:33;;;;;;;8.10;3.80;;;;;;;26.62;36.65;100338.47;6308268;28;20044;-86
2021/09/10 10:50:34;;;;;;;6.68;3.45;;;;;;;26.71;36.35;100324.75;6308336;28;20036;-86
2021/09/10 10:53:47;;;;;;;7.65;3.50;;;;;;;27.00;36.10;100322.94;6308178;28;20043;-82
2021/09/10 10:56:49;;;;;;;10.18;3.75;;;;;;;26.92;34.65;100326.56;6306824;28;21065;-86
2021/09/10 10:59:50;;;;;;;9.60;3.85;;;;;;;26.67;37.75;100320.00;6291326;28;20507;-86
2021/09/10 11:03:16;;;;;;;7.25;3.67;;;;;;;26.72;35.39;100318.38;6291368;28;20038;-84
2021/09/10 11:06:28;;;;;;;8.20;3.53;;;;;;;26.70;35.28;100319.59;6307681;28;20044;-86
2021/09/10 11:09:29;;;;;;;8.90;3.47;;;;;;;26.65;34.61;100320.19;6307741;28;20040;-87
2021/09/10 11:12:30;;;;;;;12.30;3.92;;;;;;;27.06;36.98;100311.44;6273634;28;20155;-87
2021/09/10 11:15:33;;;;;;;9.80;3.47;;;;;;;27.12;33.17;100309.84;6290677;28;20101;-82
2021/09/10 11:18:36;;;;;;;9.80;3.88;;;;;;;26.69;34.14;100300.03;6290405;28;20051;-86
2021/09/10 11:21:37;;;;;;;6.15;3.33;;;;;;;27.05;37.55;100311.63;6307703;28;20044;-83
2021/09/10 11:24:38;;;;;;;6.20;3.20;;;;;;;27.37;38.00;100304.06;6290951;28;20043;-83
2021/09/10 11:27:39;;;;;;;5.05;3.33;;;;;;;27.60;34.99;100295.72;6290864;28;20040;-85
2021/09/10 11:30:40;;;;;;;;;;;;;;;27.64;34.32;100294.28;6291365;28;20040;-85
2021/09/10 11:33:43;;;;;;;7.63;3.50;;;;;;;27.56;31.82;100289.09;6307330;28;19924;-83
2021/09/10 11:36:44;;;;;;;8.68;3.70;;;;;;;27.37;37.08;100286.13;6307703;28;20070;-85
2021/09/10 11:39:45;;;;;;;5.43;3.90;;;;;;;27.35;32.83;100274.78;6290051;28;20108;-87
2021/09/10 11:42:46;;;;;;;10.85;3.20;;;;;;;27.39;31.85;100277.88;6273320;28;20071;-84
2021/09/10 11:46:11;;;;;;;9.00;3.35;;;;;;;27.39;31.53;100275.22;6273822;28;20048;-86
2021/09/10 11:49:12;;;;;;;6.43;3.30;;;;;;;27.39;31.33;100273.34;6306319;28;20060;-86
2021/09/10 11:52:35;;;;;;;5.90;2.95;;;;;;;27.14;32.85;100262.28;6306531;28;20479;-84
2021/09/10 11:55:35;;;;;;;6.30;2.95;;;;;;;27.26;33.63;100265.22;6324927;28;20637;-84
2021/09/10 11:58:41;;;;;;;10.30;3.15;;;;;;;27.11;32.77;100257.28;6306722;28;20039;-83
2021/09/10 12:01:43;;;;;;;8.02;3.38;;;;;;;26.91;32.32;100254.47;6324737;28;20382;-84
2021/09/10 12:04:54;;;;;;;8.55;3.88;;;;;;;26.89;33.00;100248.50;6290471;28;20064;-83
2021/09/10 12:07:55;;;;;;;4.90;2.83;;;;;;;26.86;33.28;100252.41;6306585;28;20409;-84
2021/09/10 12:10:56;;;;;;;8.02;3.30;;;;;;;26.97;32.62;100247.53;6290016;28;20537;-87
2021/09/10 12:13:57;;;;;;;5.90;3.50;;;;;;;26.83;32.50;100244.78;6273269;28;20040;-87
2021/09/10 12:17:09;;;;;;;6.15;3.10;;;;;;;26.71;34.36;100249.81;6306537;28;20133;-87
2021/09/10 12:20:13;;;;;;;5.00;3.20;;;;;;;27.05;34.63;100253.53;6306506;28;20040;-88
2021/09/10 12:23:20;;;;;;;4.95;2.67;;;;;;;27.19;35.29;100251.78;6306506;28;20036;-84
2021/09/10 12:26:20;;;;;;;5.45;3.03;;;;;;;27.29;34.51;100246.09;6324868;28;20044;-86
2021/09/10 12:29:28;;;;;;;6.90;3.00;;;;;;;26.69;31.67;100248.38;6290110;28;20036;-85
2021/09/10 12:32:29;;;;;;;7.95;3.30;;;;;;;26.52;33.32;100237.91;6289578;28;20047;-86
2021/09/10 12:35:32;;;;;;;5.18;3.33;;;;;;;26.27;32.20;100240.16;6306150;28;20087;-85
2021/09/10 12:38:39;;;;;;;5.40;2.88;;;;;;;26.32;34.91;100235.06;6306003;28;20046;-86
2021/09/10 12:41:42;;;;;;;11.45;3.20;;;;;;;26.71;33.84;100238.31;6305902;28;20040;-86
2021/09/10 12:44:42;;;;;;;5.90;3.10;;;;;;;26.88;35.41;100244.19;6288817;28;20093;-85
2021/09/10 12:47:44;;;;;;;5.03;3.25;;;;;;;27.06;31.06;100235.66;6305876;28;20039;-85
2021/09/10 12:50:44;;;;;;;;;;;;;;;27.15;33.34;100226.41;6305535;28;20093;-86
2021/09/10 12:53:45;;;;;;;3.65;2.80;;;;;;;27.04;32.74;100227.81;6320320;28;19967;-87
2021/09/10 12:56:46;;;;;;;6.07;3.10;;;;;;;27.06;30.60;100222.25;6288668;28;20097;-85
2021/09/10 12:59:47;;;;;;;5.30;3.58;;;;;;;27.13;31.62;100215.06;6305674;28;20078;-86
2021/09/10 13:02:48;;;;;;;5.38;2.70;;;;;;;27.00;33.65;100218.50;6272088;28;20701;-86
2021/09/10 13:05:48;;;;;;;6.95;3.08;;;;;;;26.74;32.23;100213.81;6271858;28;20048;-87
2021/09/10 13:08:49;;;;;;;4.95;3.10;;;;;;;26.64;35.07;100205.28;6272186;28;20040;-83
2021/09/10 13:11:50;;;;;;;4.53;2.83;;;;;;;26.62;35.32;100210.84;6272102;28;20040;-82
2021/09/10 13:14:51;;;;;;;5.35;3.30;;;;;;;26.58;35.27;100200.72;6271909;28;20402;-84
2021/09/10 13:17:52;;;;;;;;;;;;;;;26.48;32.49;100206.38;6323101;28;20100;-86
2021/09/10 13:20:53;;;;;;;6.00;3.07;;;;;;;26.25;31.14;100201.25;6322843;28;19928;-84
2021/09/10 13:23:54;;;;;;;6.05;2.97;;;;;;;26.24;35.86;100205.78;6288234;28;20059;-83
2021/09/10 13:26:55;;;;;;;9.23;3.30;;;;;;;26.23;33.11;100197.94;6304945;28;20048;-82
2021/09/10 13:29:57;;;;;;;5.80;3.30;;;;;;;26.34;32.69;100197.44;6288138;28;20036;-81
2021/09/10 13:32:58;;;;;;;5.40;3.05;;;;;;;26.41;32.50;100200.97;6272033;28;20108;-87
2021/09/10 13:35:59;;;;;;;7.78;3.03;;;;;;;26.26;31.97;100193.03;6271369;28;20474;-83
2021/09/10 13:39:00;;;;;;;4.20;3.00;;;;;;;26.13;34.92;100200.97;6287964;28;20040;-88
2021/09/10 13:42:01;;;;;;;7.07;2.95;;;;;;;26.10;31.16;100188.78;6287776;28;20040;-83
2021/09/10 13:45:02;;;;;;;10.20;2.95;;;;;;;25.87;31.54;100190.81;6304281;28;20112;-81
2021/09/10 13:48:04;;;;;;;10.45;2.95;;;;;;;25.76;36.05;100189.47;6304249;28;20048;-83
2021/09/10 13:51:07;;;;;;;14.93;3.22;;;;;;;25.78;34.71;100190.09;6304195;28;20044;-87
2021/09/10 13:54:07;;;;;;;3.92;2.83;;;;;;;25.86;35.05;100187.31;6303631;28;20066;-83
2021/09/10 13:57:08;;;;;;;6.10;2.95;;;;;;;25.74;37.46;100184.31;6302670;28;20047;-86
2021/09/10 14:00:10;;;;;;;7.65;3.33;;;;;;;25.63;33.60;100182.09;6303770;28;20482;-84